createdAt,value
2023-04-20T00:00:22.261Z,54.86
2023-04-20T00:03:28.978Z,53.68
2023-04-20T00:06:38.590Z,53.85
2023-04-20T00:09:44.440Z,54.60
2023-04-20T00:12:51.293Z,52.36
2023-04-20T00:15:57.281Z,50.28
2023-04-20T00:19:04.201Z,50.65
2023-04-20T00:22:12.694Z,52.87
2023-04-20T00:25:19.788Z,54.58
2023-04-20T00:28:25.778Z,54.74
2023-04-20T00:31:32.582Z,55.72
2023-04-20T00:34:38.584Z,57.74
2023-04-20T00:37:52.761Z,55.76
2023-04-20T00:40:59.059Z,55.82
2023-04-20T00:44:07.023Z,55.44
2023-04-20T00:47:13.129Z,55.34
2023-04-20T00:50:20.803Z,53.71
2023-04-20T00:53:29.404Z,55.30
2023-04-20T00:56:36.367Z,55.92
2023-04-20T00:59:56.475Z,58.10
2023-04-20T01:03:03.497Z,56.06
2023-04-20T01:06:11.316Z,56.33
2023-04-20T01:09:20.717Z,55.53
2023-04-20T01:12:26.675Z,56.11
2023-04-20T01:15:34.497Z,55.63
2023-04-20T01:18:48.702Z,61.85
2023-04-20T01:21:55.852Z,67.30
2023-04-20T01:25:16.820Z,58.08
2023-04-20T01:28:27.762Z,58.46
2023-04-20T01:31:34.126Z,58.72
2023-04-20T01:34:42.093Z,58.24
2023-04-20T01:37:50.161Z,57.88
2023-04-20T01:40:59.835Z,55.58
2023-04-20T01:44:06.823Z,56.13
2023-04-20T01:47:14.500Z,54.44
2023-04-20T01:50:20.711Z,55.75
2023-04-20T01:53:28.230Z,57.04
2023-04-20T01:56:36.711Z,57.03
2023-04-20T01:59:43.657Z,56.14
2023-04-20T02:02:51.648Z,54.85
2023-04-20T02:05:58.597Z,55.70
2023-04-20T02:09:09.511Z,56.18
2023-04-20T02:12:19.015Z,56.01
2023-04-20T02:15:27.027Z,57.84
2023-04-20T02:18:39.871Z,56.84
2023-04-20T02:21:45.902Z,56.87
2023-04-20T02:24:52.910Z,55.89
2023-04-20T02:28:01.432Z,56.18
2023-04-20T02:31:08.577Z,55.42
2023-04-20T02:34:14.584Z,55.29
2023-04-20T02:37:21.420Z,54.26
2023-04-20T02:40:27.566Z,52.53
2023-04-20T02:43:37.251Z,52.49
2023-04-20T02:46:50.090Z,52.46
2023-04-20T02:49:58.380Z,52.29
2023-04-20T02:53:08.834Z,51.11
2023-04-20T02:56:17.339Z,51.00
2023-04-20T02:59:33.030Z,50.20
2023-04-20T03:02:45.777Z,49.17
2023-04-20T03:05:53.078Z,48.34
2023-04-20T03:09:02.070Z,47.24
2023-04-20T03:12:26.917Z,47.73
2023-04-20T03:15:59.103Z,48.73
2023-04-20T03:19:13.955Z,49.39
2023-04-20T03:22:21.037Z,48.66
2023-04-20T03:25:32.876Z,49.46
2023-04-20T03:28:46.267Z,53.18
2023-04-20T03:32:00.639Z,53.31
2023-04-20T03:35:15.363Z,53.47
2023-04-20T03:38:21.519Z,57.74
2023-04-20T03:41:28.448Z,55.25
2023-04-20T03:44:34.316Z,52.50
2023-04-20T03:47:46.524Z,50.06
2023-04-20T03:50:52.651Z,49.81
2023-04-20T03:53:59.384Z,53.08
2023-04-20T03:57:06.387Z,53.58
2023-04-20T04:00:15.540Z,52.60
2023-04-20T04:03:27.297Z,51.14
2023-04-20T04:06:34.512Z,49.91
2023-04-20T04:09:40.385Z,48.35
2023-04-20T04:12:48.391Z,47.49
2023-04-20T04:15:54.698Z,47.16
2023-04-20T04:19:04.735Z,47.26
2023-04-20T04:22:11.855Z,49.93
2023-04-20T04:25:30.100Z,49.42
2023-04-20T04:28:36.278Z,48.54
2023-04-20T04:31:51.417Z,46.57
2023-04-20T04:35:01.655Z,45.90
2023-04-20T04:38:08.615Z,46.36
2023-04-20T04:41:16.388Z,47.21
2023-04-20T04:44:26.334Z,46.52
2023-04-20T04:47:32.798Z,46.09
2023-04-20T04:50:42.431Z,45.87
2023-04-20T04:53:49.930Z,45.03
2023-04-20T04:56:56.739Z,45.06
2023-04-20T05:00:02.739Z,42.70
2023-04-20T05:03:09.876Z,42.83
2023-04-20T05:06:18.777Z,44.38
2023-04-20T05:09:25.914Z,42.49
2023-04-20T05:12:31.819Z,41.14
2023-04-20T05:15:39.008Z,41.25
2023-04-20T05:18:45.142Z,40.96
2023-04-20T05:21:54.808Z,40.75
2023-04-20T05:25:00.828Z,40.24
2023-04-20T05:28:08.039Z,40.44
2023-04-20T05:31:14.090Z,39.16
2023-04-20T05:34:20.946Z,40.27
2023-04-20T05:37:29.746Z,40.35
2023-04-20T05:40:37.656Z,39.68
2023-04-20T05:43:43.618Z,37.75
2023-04-20T05:46:50.764Z,38.34
2023-04-20T05:49:56.635Z,38.75
2023-04-20T05:53:06.193Z,36.55
2023-04-20T05:56:12.282Z,33.86
2023-04-20T05:59:19.990Z,33.96
2023-04-20T06:02:26.633Z,33.68
2023-04-20T06:05:34.279Z,33.26
2023-04-20T06:08:43.042Z,35.03
2023-04-20T06:11:49.820Z,35.64
2023-04-20T06:14:56.079Z,34.81
2023-04-20T06:18:02.954Z,35.70
2023-04-20T06:21:09.180Z,35.13
2023-04-20T06:24:18.571Z,35.86
2023-04-20T06:27:24.591Z,35.58
2023-04-20T06:30:31.322Z,33.98
2023-04-20T06:33:37.392Z,31.58
2023-04-20T06:36:46.566Z,29.64
2023-04-20T06:39:57.621Z,29.46
2023-04-20T06:43:04.510Z,30.56
2023-04-20T06:46:10.508Z,30.20
2023-04-20T06:49:17.637Z,29.82
2023-04-20T06:52:24.336Z,30.00
2023-04-20T06:55:34.102Z,30.69
2023-04-20T06:58:40.222Z,29.87
2023-04-20T07:01:49.898Z,27.18
2023-04-20T07:04:56.018Z,27.21
2023-04-20T07:08:02.950Z,27.81
2023-04-20T07:11:11.751Z,28.64
2023-04-20T07:14:18.536Z,28.18
2023-04-20T07:17:24.894Z,29.10
2023-04-20T07:20:31.833Z,29.09
2023-04-20T07:23:37.877Z,30.67
2023-04-20T07:26:47.427Z,29.13
2023-04-20T07:29:53.274Z,29.13
2023-04-20T07:33:08.959Z,25.81
2023-04-20T07:36:17.264Z,25.46
2023-04-20T07:39:25.780Z,24.66
2023-04-20T07:42:39.767Z,24.51
2023-04-20T07:45:46.700Z,24.37
2023-04-20T07:48:53.004Z,24.00
2023-04-20T07:52:12.981Z,23.62
2023-04-20T07:55:22.900Z,23.71
2023-04-20T07:58:32.270Z,23.25
2023-04-20T08:01:43.568Z,24.13
2023-04-20T08:04:57.329Z,25.44
2023-04-20T08:08:10.528Z,26.27
2023-04-20T08:11:17.354Z,25.63
2023-04-20T08:14:26.740Z,24.99
2023-04-20T08:17:39.984Z,24.36
2023-04-20T08:21:00.096Z,23.06
2023-04-20T08:24:19.108Z,23.86
2023-04-20T08:27:25.134Z,23.94
2023-04-20T08:30:34.811Z,23.36
2023-04-20T08:33:45.057Z,23.55
2023-04-20T08:36:52.229Z,22.39
2023-04-20T08:39:58.145Z,21.49
2023-04-20T08:43:05.007Z,22.18
2023-04-20T08:46:14.013Z,21.62
2023-04-20T08:49:22.601Z,23.00
2023-04-20T08:52:38.988Z,22.16
2023-04-20T08:55:46.121Z,20.49
2023-04-20T08:58:52.679Z,20.68
2023-04-20T09:02:13.987Z,21.30
2023-04-20T09:05:28.290Z,20.02
2023-04-20T09:08:42.916Z,19.59
2023-04-20T09:11:49.786Z,20.94
2023-04-20T09:14:57.345Z,20.22
2023-04-20T09:18:17.870Z,20.18
2023-04-20T09:21:25.192Z,20.68
2023-04-20T09:24:44.310Z,20.23
2023-04-20T09:28:00.272Z,20.51
2023-04-20T09:31:06.359Z,19.32
2023-04-20T09:34:16.852Z,18.74
2023-04-20T09:37:23.218Z,18.73
2023-04-20T09:40:30.360Z,17.11
2023-04-20T09:43:39.375Z,16.28
2023-04-20T09:46:48.341Z,15.11
2023-04-20T09:50:00.148Z,15.05
2023-04-20T09:53:09.550Z,16.24
2023-04-20T09:56:18.562Z,17.25
2023-04-20T09:59:25.510Z,16.11
2023-04-20T10:02:31.820Z,14.94
2023-04-20T10:05:43.158Z,14.00
2023-04-20T10:08:49.403Z,12.89
2023-04-20T10:11:59.593Z,13.80
2023-04-20T10:15:06.054Z,15.82
2023-04-20T10:18:21.205Z,14.70
2023-04-20T10:21:36.997Z,13.79
2023-04-20T10:24:55.549Z,13.22
2023-04-20T10:28:06.426Z,18.23
2023-04-20T10:31:15.802Z,17.08
2023-04-20T10:34:33.123Z,13.63
2023-04-20T10:37:52.305Z,13.02
2023-04-20T10:40:58.431Z,13.35
2023-04-20T10:44:13.366Z,13.60
2023-04-20T10:47:19.574Z,13.72
2023-04-20T10:50:35.618Z,14.49
2023-04-20T10:53:52.732Z,14.24
2023-04-20T10:56:59.522Z,14.04
2023-04-20T11:00:19.587Z,14.10
2023-04-20T11:03:26.636Z,14.28
2023-04-20T11:06:32.911Z,14.35
2023-04-20T11:09:43.315Z,15.02
2023-04-20T11:12:49.233Z,13.83
2023-04-20T11:15:56.149Z,13.45
2023-04-20T11:19:02.107Z,11.42
2023-04-20T11:22:10.086Z,10.98
2023-04-20T11:25:20.408Z,10.85
2023-04-20T11:28:34.821Z,9.92
2023-04-20T11:31:47.123Z,9.86
2023-04-20T11:35:07.194Z,9.76
2023-04-20T11:38:13.653Z,10.27
2023-04-20T11:41:23.530Z,10.98
2023-04-20T11:44:30.212Z,10.09
2023-04-20T11:47:38.181Z,9.78
2023-04-20T11:50:44.273Z,9.38
2023-04-20T11:53:50.981Z,13.02
2023-04-20T11:57:00.410Z,13.10
2023-04-20T12:00:13.454Z,13.37
2023-04-20T12:03:26.142Z,13.06
2023-04-20T12:06:36.505Z,13.37
2023-04-20T12:09:42.496Z,11.72
2023-04-20T12:12:52.468Z,11.28
2023-04-20T12:15:58.463Z,11.29
2023-04-20T12:19:09.323Z,10.44
2023-04-20T12:22:17.809Z,9.12
2023-04-20T12:25:30.835Z,9.04
2023-04-20T12:28:39.881Z,8.88
2023-04-20T12:31:46.829Z,9.52
2023-04-20T12:34:52.943Z,10.51
2023-04-20T12:38:01.603Z,10.22
2023-04-20T12:41:17.814Z,11.19
2023-04-20T12:44:27.440Z,11.50
2023-04-20T12:47:33.574Z,11.87
2023-04-20T12:50:40.440Z,11.78
2023-04-20T12:53:46.712Z,12.41
2023-04-20T12:56:56.421Z,13.15
2023-04-20T13:00:14.451Z,13.92
2023-04-20T13:03:21.670Z,13.35
2023-04-20T13:06:28.276Z,14.09
2023-04-20T13:09:35.000Z,14.10
2023-04-20T13:12:41.078Z,14.62
2023-04-20T13:15:50.482Z,15.80
2023-04-20T13:18:56.736Z,16.67
2023-04-20T13:22:04.151Z,15.58
2023-04-20T13:25:11.482Z,13.28
2023-04-20T13:28:18.452Z,12.32
2023-04-20T13:31:27.072Z,11.18
2023-04-20T13:34:34.016Z,11.67
2023-04-20T13:37:40.020Z,11.23
2023-04-20T13:40:47.024Z,10.87
2023-04-20T13:43:53.546Z,9.91
2023-04-20T13:47:07.899Z,9.23
2023-04-20T13:50:14.642Z,8.29
2023-04-20T13:53:22.247Z,7.62
2023-04-20T13:56:28.281Z,7.40
2023-04-20T13:59:35.226Z,7.41
2023-04-20T14:02:43.925Z,7.25
2023-04-20T14:05:51.892Z,7.02
2023-04-20T14:08:58.243Z,6.94
2023-04-20T14:12:05.185Z,7.44
2023-04-20T14:15:13.687Z,8.89
2023-04-20T14:18:26.624Z,8.88
2023-04-20T14:21:33.045Z,7.76
2023-04-20T14:24:41.039Z,7.91
2023-04-20T14:27:46.939Z,8.95
2023-04-20T14:30:54.250Z,11.17
2023-04-20T14:34:13.457Z,10.05
2023-04-20T14:37:20.498Z,9.10
2023-04-20T14:40:34.496Z,7.75
2023-04-20T14:43:41.539Z,6.91
2023-04-20T14:46:47.654Z,6.33
2023-04-20T14:50:01.504Z,6.28
2023-04-20T14:53:07.647Z,5.96
2023-04-20T14:56:14.510Z,5.42
2023-04-20T14:59:20.623Z,5.61
2023-04-20T15:02:27.547Z,5.85
2023-04-20T15:05:37.458Z,5.61
2023-04-20T15:09:04.976Z,5.65
2023-04-20T15:12:16.556Z,5.81
2023-04-20T15:15:23.392Z,5.66
2023-04-20T15:18:29.437Z,6.09
2023-04-20T15:21:43.484Z,5.97
2023-04-20T15:24:50.627Z,5.67
2023-04-20T15:28:11.644Z,6.28
2023-04-20T15:31:20.629Z,5.63
2023-04-20T15:34:27.402Z,5.20
2023-04-20T15:37:36.184Z,5.32
2023-04-20T15:40:43.051Z,5.04
2023-04-20T15:43:49.199Z,5.03
2023-04-20T15:46:56.465Z,5.24
2023-04-20T15:50:04.519Z,4.77
2023-04-20T15:53:14.094Z,4.94
2023-04-20T15:56:29.157Z,4.85
2023-04-20T15:59:38.337Z,4.75
2023-04-20T16:02:55.124Z,5.04
2023-04-20T16:06:03.581Z,4.71
2023-04-20T16:09:12.125Z,4.99
2023-04-20T16:12:27.139Z,5.35
2023-04-20T16:15:34.064Z,4.85
2023-04-20T16:18:41.194Z,4.76
2023-04-20T16:21:47.216Z,5.23
2023-04-20T16:24:57.049Z,5.01
2023-04-20T16:28:03.705Z,4.99
2023-04-20T16:31:10.761Z,4.89
2023-04-20T16:34:17.550Z,4.96
2023-04-20T16:37:29.579Z,5.17
2023-04-20T16:40:38.180Z,5.22
2023-04-20T16:43:45.133Z,5.04
2023-04-20T16:46:52.986Z,5.39
2023-04-20T16:50:06.203Z,5.53
2023-04-20T16:53:18.430Z,5.70
2023-04-20T16:56:27.835Z,5.60
2023-04-20T16:59:33.936Z,5.68
2023-04-20T17:02:47.308Z,5.74
2023-04-20T17:05:55.647Z,6.61
2023-04-20T17:09:07.324Z,6.32
2023-04-20T17:12:15.948Z,6.00
2023-04-20T17:15:22.867Z,6.41
2023-04-20T17:18:29.052Z,6.26
2023-04-20T17:21:35.887Z,6.09
2023-04-20T17:24:41.851Z,6.41
2023-04-20T17:27:52.100Z,7.18
2023-04-20T17:30:59.873Z,6.77
2023-04-20T17:34:07.364Z,7.01
2023-04-20T17:37:13.306Z,7.48
2023-04-20T17:40:20.194Z,8.59
2023-04-20T17:43:40.673Z,9.01
2023-04-20T17:46:47.511Z,9.25
2023-04-20T17:49:53.878Z,9.79
2023-04-20T17:53:11.268Z,10.16
2023-04-20T17:56:17.278Z,10.82
2023-04-20T17:59:32.529Z,10.96
2023-04-20T18:02:38.768Z,10.79
2023-04-20T18:05:45.716Z,11.62
2023-04-20T18:08:51.661Z,11.23
2023-04-20T18:11:58.400Z,11.58
2023-04-20T18:15:09.183Z,11.69
2023-04-20T18:18:22.437Z,11.86
2023-04-20T18:21:29.934Z,11.80
2023-04-20T18:24:36.985Z,11.49
2023-04-20T18:27:42.921Z,11.00
2023-04-20T18:30:59.024Z,10.88
2023-04-20T18:34:17.126Z,11.07
2023-04-20T18:37:24.094Z,11.04
2023-04-20T18:40:30.064Z,11.25
2023-04-20T18:43:39.178Z,12.06
2023-04-20T18:46:48.260Z,13.16
2023-04-20T18:49:55.239Z,14.81
2023-04-20T18:53:01.120Z,16.41
2023-04-20T18:56:10.161Z,16.76
2023-04-20T18:59:16.445Z,15.96
2023-04-20T19:02:27.287Z,15.68
2023-04-20T19:05:33.401Z,14.38
2023-04-20T19:08:40.249Z,13.90
2023-04-20T19:11:46.513Z,14.20
2023-04-20T19:15:04.469Z,14.94
2023-04-20T19:18:13.179Z,17.00
2023-04-20T19:21:32.415Z,19.55
2023-04-20T19:24:38.567Z,19.48
2023-04-20T19:27:45.606Z,22.62
2023-04-20T19:30:51.877Z,24.35
2023-04-20T19:34:01.247Z,27.58
2023-04-20T19:37:09.316Z,27.54
2023-04-20T19:40:16.584Z,31.87
2023-04-20T19:43:25.057Z,31.81
2023-04-20T19:46:36.307Z,31.33
2023-04-20T19:49:44.995Z,30.34
2023-04-20T19:52:51.790Z,30.61
2023-04-20T19:55:57.931Z,30.87
2023-04-20T19:59:05.031Z,33.15
2023-04-20T20:02:11.221Z,35.13
2023-04-20T20:05:21.107Z,33.27
2023-04-20T20:08:27.127Z,33.55
2023-04-20T20:11:33.854Z,38.31
2023-04-20T20:14:40.079Z,38.68
2023-04-20T20:17:48.032Z,33.72
2023-04-20T20:20:56.627Z,36.42
2023-04-20T20:24:03.379Z,38.53
2023-04-20T20:27:09.526Z,37.45
2023-04-20T20:30:19.485Z,36.44
2023-04-20T20:33:26.372Z,34.77
2023-04-20T20:36:36.394Z,33.97
2023-04-20T20:39:43.340Z,31.88
2023-04-20T20:42:50.804Z,32.58
2023-04-20T20:45:56.750Z,32.97
2023-04-20T20:49:03.548Z,34.44
2023-04-20T20:52:12.410Z,35.76
2023-04-20T20:55:19.642Z,33.70
2023-04-20T20:58:25.693Z,32.42
2023-04-20T21:01:46.940Z,33.87
2023-04-20T21:05:10.228Z,33.10
2023-04-20T21:08:20.404Z,33.46
2023-04-20T21:11:26.764Z,32.41
2023-04-20T21:14:33.557Z,32.27
2023-04-20T21:17:39.695Z,31.26
2023-04-20T21:20:46.625Z,32.21
2023-04-20T21:23:55.894Z,33.32
2023-04-20T21:27:03.221Z,38.35
2023-04-20T21:30:10.770Z,34.15
2023-04-20T21:33:17.763Z,31.44
2023-04-20T21:36:31.217Z,29.43
2023-04-20T21:39:40.757Z,28.68
2023-04-20T21:42:49.436Z,29.05
2023-04-20T21:45:56.274Z,27.16
2023-04-20T21:49:02.860Z,25.94
2023-04-20T21:52:12.655Z,27.30
2023-04-20T21:55:21.218Z,28.88
2023-04-20T21:58:28.047Z,30.15
2023-04-20T22:01:34.197Z,35.40
2023-04-20T22:04:41.657Z,40.46
2023-04-20T22:07:48.190Z,38.05
2023-04-20T22:10:59.918Z,36.33
2023-04-20T22:14:06.273Z,32.70
2023-04-20T22:17:14.762Z,36.71
2023-04-20T22:20:21.014Z,41.66
2023-04-20T22:23:27.842Z,33.00
2023-04-20T22:26:36.517Z,28.69
2023-04-20T22:29:43.330Z,27.00
2023-04-20T22:32:49.391Z,27.61
2023-04-20T22:35:56.254Z,26.20
2023-04-20T22:39:02.325Z,25.38
2023-04-20T22:42:11.814Z,26.44
2023-04-20T22:45:20.534Z,29.29
2023-04-20T22:48:27.431Z,27.95
2023-04-20T22:51:33.440Z,25.13
2023-04-20T22:54:40.743Z,23.66
2023-04-20T22:57:49.302Z,22.91
2023-04-20T23:00:56.129Z,24.95
2023-04-20T23:04:02.235Z,25.03
2023-04-20T23:07:11.947Z,24.82
2023-04-20T23:10:19.449Z,25.15
2023-04-20T23:13:29.141Z,26.16
2023-04-20T23:16:35.360Z,27.01
2023-04-20T23:19:42.175Z,25.45
2023-04-20T23:22:48.009Z,25.24
2023-04-20T23:26:01.359Z,24.67
2023-04-20T23:29:21.359Z,24.66
2023-04-20T23:32:29.955Z,25.50
2023-04-20T23:35:38.969Z,25.78
2023-04-20T23:38:46.802Z,25.95
2023-04-20T23:41:52.700Z,25.47
2023-04-20T23:45:02.086Z,26.93
2023-04-20T23:48:17.979Z,26.40
2023-04-20T23:51:24.919Z,29.13
2023-04-20T23:54:33.101Z,30.12
2023-04-20T23:57:40.277Z,31.39
